Harpswell, Maine
Current Conditions -  °F | °C
As of 4:51 AM on Sunday 23 Nov 2014 (Local Time) from KPWM Reporting Station
Overcast Overcast  
Wind Chill: 35°   Ceiling: 7500
Heat Index: 41°   Visibility: 10mi
Dew Point: 26°   Wind: 10mph
Humidity: 55%   Direction: 220°SW
Pressure: 29.99"   Gusts: NA
Location:  43.74°N, 70.01°W
Report Text: KPWM 230951Z 22009KT 10SM BKN075 OVC090 05/M03 A2999 RMK AO2 SLP156 T00501033
Loading
Personal Weather Stations






























Interactive Weather Map New forecast layout! Learn more

10-Day Weather Forecast

Advertisements
Track Severe Weather on mobile